Blanchard, Iowa
Current Conditions -  °F | °C
As of 11:35 AM on Friday 24 Oct 2014 (Local Time) from KICL Reporting Station
Haze Haze  
Wind Chill: 64°   Ceiling: 800
Heat Index: 64°   Visibility: 6mi
Dew Point: 61°   Wind: 10mph
Humidity: 88%   Direction: 180°S
Pressure: 29.98"   Gusts: NA
Location:  40.58°N, 95.23°W
Report Text: KICL 241635Z AUTO 18009KT 6SM BR OVC008 18/16 A2998 RMK AO2
Loading
Personal Weather Stations






























Interactive Weather Map
Tropical Storm Tracking
New forecast layout! Learn more

10-Day Weather Forecast

Advertisements
Track Severe Weather on mobile